Time;durP1;ratioP1;P1;durP2;ratioP2;P2;SDS_P1;SDS_P2;PMS_P1;PMS_P2;Temp;Humidity;BMP_temperature;BMP_pressure;BME280_temperature;BME280_humidity;BME280_pressure;Samples;Min_cycle;Max_cycle;Signal;HPM_P1;HPM_P2
2022/01/02 00:00:19;;;;;;;9.73;8.83;;;8.70;57.70;;;;;;21214;6685;66617;-84
2022/01/02 00:02:51;;;;;;;11.47;10.67;;;8.60;57.80;;;;;;21046;6677;308363;-86
2022/01/02 00:05:16;;;;;;;11.50;10.60;;;8.70;57.70;;;;;;21043;6676;285182;-84
2022/01/02 00:08:02;;;;;;;10.67;9.87;;;9.00;57.00;;;;;;21229;6691;66557;-84
2022/01/02 00:10:27;;;;;;;11.10;10.02;;;8.90;57.60;;;;;;21028;6679;337731;-84
2022/01/02 00:12:53;;;;;;;10.10;9.40;;;8.90;56.30;;;;;;20960;6692;321690;-84
2022/01/02 00:15:19;;;;;;;9.87;9.10;;;9.00;55.10;;;;;;21209;6685;67448;-84
2022/01/02 00:17:44;;;;;;;9.63;8.73;;;8.90;55.70;;;;;;21207;6685;67427;-83
2022/01/02 00:20:13;;;;;;;9.32;8.52;;;8.60;56.70;;;;;;21271;6677;67160;-84
2022/01/02 00:22:39;;;;;;;10.33;9.33;;;8.30;57.60;;;;;;21258;6680;67881;-84
2022/01/02 00:25:11;;;;;;;9.57;8.85;;;7.90;59.10;;;;;;21221;6692;67124;-83
2022/01/02 00:27:31;;;;;;;9.53;8.83;;;7.90;59.10;;;;;;21255;6677;66956;-84
2022/01/02 00:29:59;;;;;;;9.85;8.90;;;7.80;59.70;;;;;;21275;6680;67419;-84
2022/01/02 00:32:24;;;;;;;10.37;9.43;;;7.70;60.00;;;;;;21277;6677;69390;-84
2022/01/02 00:34:51;;;;;;;9.17;8.47;;;7.50;60.60;;;;;;21263;6680;70036;-84
2022/01/02 00:37:19;;;;;;;8.67;7.97;;;7.50;60.60;;;;;;21226;6692;68733;-84
2022/01/02 00:39:44;;;;;;;9.10;8.40;;;7.40;60.90;;;;;;21268;6677;67722;-85
2022/01/02 00:42:10;;;;;;;10.10;8.73;;;7.40;61.30;;;;;;21255;6680;71130;-84
2022/01/02 00:44:49;;;;;;;8.85;8.05;;;7.30;61.50;;;;;;21220;6692;66650;-89
2022/01/02 00:47:18;;;;;;;9.40;8.60;;;7.30;61.50;;;;;;21213;6685;67048;-84
2022/01/02 00:49:43;;;;;;;9.00;8.30;;;7.20;61.50;;;;;;21244;6685;72440;-84
2022/01/02 00:52:11;;;;;;;11.38;10.48;;;7.40;60.10;;;;;;21025;6677;302714;-84
2022/01/02 00:54:36;;;;;;;10.87;9.87;;;7.40;60.10;;;;;;21264;6680;66946;-84
2022/01/02 00:57:02;;;;;;;9.60;8.70;;;7.50;59.70;;;;;;21275;6677;66561;-84
2022/01/02 00:59:28;;;;;;;9.27;8.40;;;7.30;59.90;;;;;;21197;6692;67955;-83
2022/01/02 01:01:53;;;;;;;10.30;9.50;;;7.20;60.40;;;;;;21038;6680;303922;-84
2022/01/02 01:04:19;;;;;;;9.90;9.20;;;7.40;59.60;;;;;;20984;6692;303206;-84
2022/01/02 01:06:44;;;;;;;8.93;8.23;;;7.80;58.90;;;;;;21241;6685;71519;-84
2022/01/02 01:09:10;;;;;;;9.00;8.30;;;7.80;58.70;;;;;;21253;6677;66970;-84
2022/01/02 01:11:35;;;;;;;8.70;8.00;;;7.70;59.40;;;;;;21215;6696;66915;-84
2022/01/02 01:14:02;;;;;;;34.20;8.67;;;7.50;59.90;;;;;;21240;6688;66552;-84
2022/01/02 01:16:28;;;;;;;146.03;12.87;;;7.30;60.10;;;;;;21283;6677;70795;-85
2022/01/02 01:18:54;;;;;;;12.52;10.10;;;7.20;60.20;;;;;;21050;6678;303547;-83
2022/01/02 01:21:19;;;;;;;10.07;9.30;;;7.30;59.10;;;;;;21003;6692;274881;-83
2022/01/02 01:23:44;;;;;;;10.03;9.33;;;7.60;57.40;;;;;;21001;6694;274823;-84
2022/01/02 01:26:16;;;;;;;9.10;8.38;;;7.80;56.00;;;;;;21234;6688;66473;-83
2022/01/02 01:28:37;;;;;;;9.13;8.43;;;7.80;56.00;;;;;;21260;6677;67125;-84
2022/01/02 01:31:03;;;;;;;9.73;9.13;;;7.50;57.10;;;;;;21047;6680;275197;-84
2022/01/02 01:33:28;;;;;;;9.87;9.17;;;7.60;57.50;;;;;;21001;6692;304693;-84
2022/01/02 01:35:54;;;;;;;10.20;9.33;;;7.90;57.20;;;;;;21248;6685;78377;-84
2022/01/02 01:38:20;;;;;;;9.77;9.07;;;7.80;57.20;;;;;;21055;6677;274005;-85
2022/01/02 01:40:50;;;;;;;10.02;9.32;;;7.90;57.00;;;;;;21051;6680;331292;-84
2022/01/02 01:43:15;;;;;;;9.20;8.50;;;8.10;56.40;;;;;;21225;6692;66616;-83
2022/01/02 01:45:42;;;;;;;8.37;7.67;;;7.90;56.60;;;;;;21204;6685;117188;-86
2022/01/02 01:48:06;;;;;;;9.35;8.73;;;7.70;57.60;;;;;;20457;6868;338815;-86
2022/01/02 01:50:32;;;;;;;9.05;8.30;;;7.70;58.30;;;;;;20607;6885;117441;-83
2022/01/02 01:52:57;;;;;;;9.70;8.90;;;7.70;58.50;;;;;;20446;6866;310458;-83
2022/01/02 01:55:25;;;;;;;9.80;9.10;;;7.80;58.30;;;;;;20425;6868;292239;-84
2022/01/02 01:57:50;;;;;;;8.63;8.03;;;8.10;57.20;;;;;;20667;6866;117847;-83
2022/01/02 02:00:16;;;;;;;9.00;8.40;;;8.00;57.20;;;;;;20440;6868;307711;-84
2022/01/02 02:02:41;;;;;;;8.50;7.90;;;8.10;57.50;;;;;;20581;6885;117720;-83
2022/01/02 02:05:07;;;;;;;8.10;7.40;;;8.00;57.70;;;;;;20651;6866;117418;-83
2022/01/02 02:07:45;;;;;;;7.63;7.00;;;7.50;59.10;;;;;;20582;6885;117496;-83
2022/01/02 02:10:17;;;;;;;7.40;6.73;;;7.50;59.10;;;;;;20612;6866;117674;-83
2022/01/02 02:12:57;;;;;;;7.40;6.90;;;7.40;59.80;;;;;;20619;6868;117340;-85
2022/01/02 02:15:23;;;;;;;6.90;6.50;;;7.30;60.20;;;;;;20641;6885;117236;-98
2022/01/02 02:17:48;;;;;;;7.33;6.73;;;7.10;60.50;;;;;;20656;6866;117637;-83
2022/01/02 02:20:14;;;;;;;8.73;7.93;;;7.10;60.80;;;;;;20431;6868;314847;-84
2022/01/02 02:22:41;;;;;;;8.38;7.78;;;7.30;60.10;;;;;;20373;6885;281165;-83
2022/01/02 02:25:05;;;;;;;7.90;7.30;;;7.70;58.50;;;;;;20646;6866;117531;-82
2022/01/02 02:27:31;;;;;;;7.47;6.87;;;7.50;58.90;;;;;;20627;6868;119510;-83
2022/01/02 02:29:57;;;;;;;8.70;8.10;;;7.50;58.80;;;;;;20448;6864;279995;-84
2022/01/02 02:32:23;;;;;;;9.00;8.30;;;7.60;58.30;;;;;;20658;6867;117311;-84
2022/01/02 02:34:49;;;;;;;7.50;7.00;;;7.60;58.30;;;;;;20605;6885;121003;-84
2022/01/02 02:37:15;;;;;;;6.90;6.40;;;7.50;58.90;;;;;;20667;6866;122552;-83
2022/01/02 02:39:43;;;;;;;8.38;7.78;;;7.50;58.80;;;;;;20375;6885;339958;-84
2022/01/02 02:42:33;;;;;;;7.53;6.93;;;7.50;58.70;;;;;;20666;6866;118150;-86
2022/01/02 02:44:57;;;;;;;7.60;7.03;;;7.50;58.70;;;;;;20633;6868;117393;-84
2022/01/02 02:50:01;;;;;;;8.13;7.53;;;7.00;60.20;;;;;;20664;6868;119640;-82
2022/01/02 02:52:39;;;;;;;8.30;7.70;;;7.00;60.20;;;;;;20666;6866;118143;-84
2022/01/02 02:54:54;;;;;;;7.82;7.25;;;6.90;60.50;;;;;;20664;6868;117489;-83
2022/01/02 02:57:19;;;;;;;8.93;8.13;;;6.80;60.80;;;;;;20738;6866;68532;-83
2022/01/02 02:59:43;;;;;;;8.95;8.35;;;6.70;61.10;;;;;;20420;6887;314833;-83
2022/01/02 03:02:09;;;;;;;9.52;8.80;;;7.00;60.50;;;;;;20398;6902;310100;-84
2022/01/02 03:04:34;;;;;;;9.53;8.73;;;7.40;59.10;;;;;;20551;6902;117190;-84
2022/01/02 03:07:00;;;;;;;8.30;7.60;;;7.40;58.90;;;;;;20546;6906;117484;-84
2022/01/02 03:09:47;;;;;;;9.17;8.50;;;7.30;59.40;;;;;;20325;6886;285570;-83
2022/01/02 03:12:06;;;;;;;10.30;9.60;;;7.30;59.40;;;;;;20362;6886;309433;-83
2022/01/02 03:14:32;;;;;;;8.97;8.27;;;7.70;57.80;;;;;;20590;6886;117655;-84
2022/01/02 03:16:57;;;;;;;8.90;8.20;;;7.60;57.80;;;;;;20506;6904;117598;-83
2022/01/02 03:19:23;;;;;;;8.67;8.07;;;7.40;58.60;;;;;;20347;6892;281691;-84
2022/01/02 03:21:49;;;;;;;8.80;8.10;;;7.50;58.30;;;;;;20378;6892;280054;-84
2022/01/02 03:24:15;;;;;;;8.67;7.97;;;8.10;56.50;;;;;;20373;6889;307953;-84
2022/01/02 03:26:42;;;;;;;8.38;7.78;;;8.10;56.50;;;;;;20368;6889;312073;-83
2022/01/02 03:29:07;;;;;;;8.80;8.20;;;8.30;55.60;;;;;;20364;6881;356280;-86
2022/01/02 03:31:34;;;;;;;9.07;8.47;;;8.50;54.70;;;;;;20354;6881;309406;-84
2022/01/02 03:33:59;;;;;;;8.03;7.40;;;8.50;54.70;;;;;;20618;6881;117277;-84
2022/01/02 03:36:25;;;;;;;9.10;8.30;;;8.30;55.20;;;;;;20361;6885;310171;-83
2022/01/02 03:38:50;;;;;;;8.80;8.20;;;8.20;55.10;;;;;;20610;6885;117865;-84
2022/01/02 03:41:16;;;;;;;7.83;7.23;;;8.00;55.60;;;;;;20653;6869;117266;-84
2022/01/02 03:43:42;;;;;;;8.05;7.45;;;7.40;57.40;;;;;;20592;6885;120562;-84
2022/01/02 03:46:08;;;;;;;8.07;7.30;;;7.40;57.40;;;;;;20656;6870;117061;-84
2022/01/02 03:48:34;;;;;;;7.47;6.87;;;7.10;58.00;;;;;;20617;6885;118047;-84
2022/01/02 03:50:59;;;;;;;7.77;7.17;;;7.00;58.70;;;;;;20647;6870;120299;-84
2022/01/02 03:53:25;;;;;;;7.28;6.78;;;6.80;59.20;;;;;;20587;6885;118523;-84
2022/01/02 03:55:50;;;;;;;7.30;6.80;;;6.70;59.70;;;;;;20645;6870;120624;-83
2022/01/02 03:58:16;;;;;;;7.37;6.87;;;6.60;60.00;;;;;;20600;6885;117273;-84
2022/01/02 04:00:41;;;;;;;7.62;7.12;;;6.50;60.30;;;;;;20436;6870;310169;-84
2022/01/02 04:03:07;;;;;;;7.60;7.10;;;6.80;59.90;;;;;;20391;6885;331729;-85
2022/01/02 04:05:32;;;;;;;7.77;7.27;;;7.20;58.50;;;;;;20416;6870;313391;-84
2022/01/02 04:07:59;;;;;;;6.28;5.85;;;7.60;57.30;;;;;;20646;6870;117611;-84
2022/01/02 04:10:24;;;;;;;6.03;5.47;;;7.60;57.30;;;;;;20644;6870;117637;-84
2022/01/02 04:12:50;;;;;;;6.00;5.60;;;7.30;58.10;;;;;;20646;6870;117630;-84
2022/01/02 04:15:16;;;;;;;5.85;5.40;;;7.20;59.10;;;;;;20645;6870;118238;-84
2022/01/02 04:17:42;;;;;;;5.73;5.30;;;7.00;59.70;;;;;;20631;6870;117709;-83
2022/01/02 04:20:08;;;;;;;6.50;6.00;;;6.90;60.20;;;;;;20643;6870;118340;-84
2022/01/02 04:22:33;;;;;;;7.43;6.93;;;6.90;61.20;;;;;;20419;6870;338905;-84
2022/01/02 04:24:59;;;;;;;7.90;7.40;;;7.10;59.90;;;;;;20434;6870;310038;-84
2022/01/02 04:27:27;;;;;;;7.87;7.37;;;7.80;57.30;;;;;;20414;6870;313689;-83
2022/01/02 04:29:52;;;;;;;7.57;7.07;;;7.80;57.30;;;;;;20650;6870;117351;-84
2022/01/02 04:32:19;;;;;;;7.68;6.97;;;7.40;58.00;;;;;;20645;6870;117444;-84
2022/01/02 04:34:44;;;;;;;8.17;7.57;;;7.40;58.00;;;;;;20438;6870;279637;-84
2022/01/02 04:37:11;;;;;;;8.55;7.93;;;7.40;57.00;;;;;;20433;6870;284378;-86
2022/01/02 04:39:35;;;;;;;8.90;8.30;;;7.70;56.00;;;;;;20411;6870;293850;-83
2022/01/02 04:42:01;;;;;;;9.35;8.65;;;7.90;55.10;;;;;;20429;6870;279751;-84
2022/01/02 04:44:27;;;;;;;8.10;7.50;;;7.90;54.30;;;;;;20652;6870;117404;-84
2022/01/02 04:46:53;;;;;;;8.77;8.07;;;7.60;55.50;;;;;;20436;6870;310171;-84
2022/01/02 04:49:19;;;;;;;8.85;8.20;;;7.60;55.40;;;;;;20424;6870;305297;-83
2022/01/02 04:51:44;;;;;;;8.93;8.33;;;7.70;55.10;;;;;;20403;6869;296427;-83
2022/01/02 04:54:10;;;;;;;9.20;8.50;;;7.80;54.50;;;;;;20433;6870;280653;-84
2022/01/02 04:56:36;;;;;;;7.93;7.23;;;7.90;54.00;;;;;;20644;6870;117810;-84
2022/01/02 04:59:01;;;;;;;7.43;6.90;;;7.70;54.50;;;;;;20632;6870;117343;-84
2022/01/02 05:01:27;;;;;;;8.47;7.87;;;7.20;55.50;;;;;;20415;6870;284287;-86
2022/01/02 05:03:52;;;;;;;7.33;6.83;;;7.20;55.50;;;;;;20647;6870;117558;-84
2022/01/02 05:06:19;;;;;;;8.00;7.40;;;7.10;55.80;;;;;;20645;6870;117777;-84
2022/01/02 05:08:45;;;;;;;7.80;7.13;;;6.80;56.50;;;;;;20654;6870;117216;-83
2022/01/02 05:11:10;;;;;;;8.73;8.13;;;6.60;57.30;;;;;;20440;6870;286557;-84
2022/01/02 05:13:36;;;;;;;8.10;7.57;;;6.70;56.70;;;;;;20420;6870;343427;-83
2022/01/02 05:16:01;;;;;;;8.63;8.03;;;7.00;56.00;;;;;;20445;6870;279801;-88
2022/01/02 05:18:27;;;;;;;8.17;7.57;;;7.30;55.30;;;;;;20645;6870;117667;-83
2022/01/02 05:20:52;;;;;;;6.93;6.43;;;7.10;55.60;;;;;;20694;6870;118730;-82
2022/01/02 05:23:19;;;;;;;7.00;6.43;;;6.90;57.20;;;;;;20736;6870;68470;-82
2022/01/02 05:25:43;;;;;;;6.70;6.20;;;6.60;57.50;;;;;;20689;6870;116323;-83
2022/01/02 05:28:12;;;;;;;5.67;5.27;;;6.40;58.30;;;;;;20701;6870;116878;-84
2022/01/02 05:30:38;;;;;;;6.30;5.87;;;6.30;59.10;;;;;;20441;6870;280064;-83
2022/01/02 05:33:04;;;;;;;6.67;6.10;;;6.60;59.90;;;;;;20429;6870;314024;-83
2022/01/02 05:35:32;;;;;;;6.50;6.03;;;7.40;58.80;;;;;;20412;6870;310252;-83
2022/01/02 05:37:57;;;;;;;7.33;6.73;;;7.40;58.60;;;;;;20434;6870;310123;-84
2022/01/02 05:40:23;;;;;;;5.80;5.40;;;7.70;57.70;;;;;;20641;6870;117783;-84
2022/01/02 05:42:49;;;;;;;5.80;5.30;;;7.40;58.60;;;;;;20654;6870;117201;-84
2022/01/02 05:45:15;;;;;;;6.10;5.60;;;7.30;58.50;;;;;;20462;6870;279526;-84
2022/01/02 05:47:41;;;;;;;5.70;5.20;;;7.40;59.30;;;;;;20642;6870;117973;-83
2022/01/02 05:50:07;;;;;;;6.33;5.83;;;7.40;58.60;;;;;;20630;6870;117304;-84
2022/01/02 05:52:35;;;;;;;7.10;6.40;;;7.20;59.10;;;;;;20423;6870;313596;-85
2022/01/02 05:55:00;;;;;;;6.00;5.60;;;7.40;58.80;;;;;;20422;6870;298035;-84
2022/01/02 05:57:26;;;;;;;4.63;4.23;;;7.70;58.10;;;;;;20628;6870;117673;-84
2022/01/02 05:59:52;;;;;;;4.75;4.45;;;7.80;58.60;;;;;;20435;6870;309676;-84
2022/01/02 06:02:18;;;;;;;5.33;4.93;;;7.80;58.60;;;;;;20642;6870;117155;-84
2022/01/02 06:04:44;;;;;;;4.40;4.10;;;7.60;59.40;;;;;;20647;6869;120788;-84
2022/01/02 06:07:09;;;;;;;4.23;3.93;;;7.60;59.40;;;;;;20647;6870;120732;-84
2022/01/02 06:09:35;;;;;;;4.53;4.22;;;7.40;60.00;;;;;;20634;6870;123476;-84
2022/01/02 06:12:01;;;;;;;4.53;4.23;;;7.30;60.60;;;;;;20650;6870;117764;-84
2022/01/02 06:14:26;;;;;;;4.80;4.40;;;7.30;61.10;;;;;;20436;6870;312534;-84
2022/01/02 06:16:52;;;;;;;4.20;3.90;;;7.50;60.50;;;;;;20636;6870;117526;-84
2022/01/02 06:19:17;;;;;;;4.70;4.00;;;7.70;60.30;;;;;;20642;6870;117896;-84
2022/01/02 06:21:43;;;;;;;4.80;4.50;;;7.80;59.80;;;;;;20405;6870;285002;-84
2022/01/02 06:24:09;;;;;;;4.87;4.57;;;7.80;59.80;;;;;;20647;6870;124233;-84
2022/01/02 06:26:35;;;;;;;4.40;4.10;;;7.90;59.50;;;;;;20632;6870;117784;-84
2022/01/02 06:29:03;;;;;;;4.30;3.90;;;7.80;60.00;;;;;;20648;6870;117214;-83
2022/01/02 06:31:26;;;;;;;4.53;4.23;;;7.60;60.70;;;;;;20608;6870;123630;-83
2022/01/02 06:33:52;;;;;;;5.40;5.10;;;7.50;60.60;;;;;;20425;6870;314732;-84
2022/01/02 06:36:18;;;;;;;6.03;5.62;;;7.80;59.70;;;;;;20423;6870;310063;-85
2022/01/02 06:38:43;;;;;;;4.67;4.37;;;8.20;58.10;;;;;;20640;6870;117296;-83
2022/01/02 06:41:11;;;;;;;6.10;5.70;;;8.30;57.10;;;;;;20430;6870;310374;-84
2022/01/02 06:43:35;;;;;;;5.70;5.30;;;8.20;56.90;;;;;;20618;6870;117450;-87
2022/01/02 06:46:02;;;;;;;5.50;5.17;;;8.10;57.20;;;;;;20647;6870;117968;-85
2022/01/02 06:48:27;;;;;;;6.55;6.15;;;7.90;57.80;;;;;;20430;6870;344732;-84
2022/01/02 06:50:53;;;;;;;7.05;6.55;;;8.00;56.80;;;;;;20420;6870;279636;-84
2022/01/02 06:53:18;;;;;;;6.40;5.90;;;8.30;55.80;;;;;;20629;6870;118016;-83
2022/01/02 06:55:45;;;;;;;7.15;6.62;;;8.10;56.00;;;;;;20388;6870;284222;-83
2022/01/02 06:58:10;;;;;;;6.17;5.77;;;8.20;56.00;;;;;;20606;6870;124114;-84
2022/01/02 07:00:36;;;;;;;7.17;6.70;;;8.20;55.60;;;;;;20431;6870;310115;-83
2022/01/02 07:03:02;;;;;;;7.20;6.70;;;8.40;54.80;;;;;;20434;6870;338966;-84
2022/01/02 07:05:28;;;;;;;8.07;6.57;;;8.40;54.80;;;;;;20628;6870;117995;-83
2022/01/02 07:07:53;;;;;;;6.90;6.40;;;8.20;55.00;;;;;;20642;6870;118240;-82
2022/01/02 07:10:20;;;;;;;6.50;6.00;;;7.60;56.40;;;;;;20655;6870;125128;-83
2022/01/02 07:12:45;;;;;;;7.10;6.40;;;7.60;56.40;;;;;;20647;6870;123219;-83
2022/01/02 07:15:11;;;;;;;7.53;6.93;;;7.50;56.10;;;;;;20436;6869;338842;-85
2022/01/02 07:17:37;;;;;;;6.27;5.87;;;7.50;56.10;;;;;;20636;6870;117201;-86
2022/01/02 07:20:06;;;;;;;7.20;6.70;;;7.50;56.10;;;;;;20433;6870;309761;-83
2022/01/02 07:22:31;;;;;;;6.70;6.23;;;7.60;55.40;;;;;;20643;6870;121312;-83
2022/01/02 07:24:57;;;;;;;7.07;6.57;;;7.60;55.60;;;;;;20645;6870;117798;-83
2022/01/02 07:27:23;;;;;;;7.27;6.77;;;7.40;55.90;;;;;;20414;6870;314245;-83
2022/01/02 07:29:49;;;;;;;6.47;6.07;;;7.40;55.90;;;;;;20646;6870;118280;-83
2022/01/02 07:32:17;;;;;;;7.72;7.22;;;7.40;56.20;;;;;;20423;6870;308255;-84
2022/01/02 07:34:44;;;;;;;7.23;6.70;;;7.40;56.20;;;;;;20653;6870;117377;-83
2022/01/02 07:37:09;;;;;;;6.30;5.80;;;7.40;56.20;;;;;;20654;6870;117398;-85
2022/01/02 07:39:35;;;;;;;6.63;6.13;;;7.20;56.90;;;;;;20632;6870;117621;-84
2022/01/02 07:42:00;;;;;;;7.57;7.07;;;7.00;57.60;;;;;;20431;6870;314341;-84
2022/01/02 07:44:26;;;;;;;7.30;6.80;;;7.20;57.60;;;;;;20439;6870;299818;-84
2022/01/02 07:46:51;;;;;;;7.10;6.60;;;7.60;56.70;;;;;;20442;6870;309569;-85
2022/01/02 07:49:17;;;;;;;7.13;6.63;;;7.80;55.90;;;;;;20430;6870;310196;-85
2022/01/02 07:51:42;;;;;;;6.85;6.25;;;8.00;55.20;;;;;;20636;6870;117463;-83
2022/01/02 07:54:08;;;;;;;5.80;5.40;;;7.90;55.60;;;;;;20645;6870;117364;-86
2022/01/02 07:56:34;;;;;;;6.87;6.30;;;7.70;56.50;;;;;;20440;6870;304879;-86
2022/01/02 07:58:59;;;;;;;6.27;5.77;;;7.70;56.40;;;;;;20649;6870;120848;-89
2022/01/02 08:01:25;;;;;;;6.10;5.70;;;7.70;56.70;;;;;;20631;6870;117636;-90
2022/01/02 08:03:51;;;;;;;6.00;5.50;;;7.50;57.30;;;;;;20656;6870;117521;-89
2022/01/02 08:06:16;;;;;;;5.77;5.27;;;7.30;58.10;;;;;;20646;6870;117436;-92
2022/01/02 08:08:42;;;;;;;6.78;6.35;;;7.20;58.80;;;;;;20440;6870;339201;-94
2022/01/02 08:11:07;;;;;;;6.23;5.83;;;7.50;58.40;;;;;;20651;6870;123574;-90
2022/01/02 08:13:33;;;;;;;6.80;6.20;;;7.60;58.20;;;;;;20417;6870;343784;-89
2022/01/02 08:15:58;;;;;;;6.30;5.80;;;7.80;57.50;;;;;;20646;6870;117731;-91
2022/01/02 08:18:24;;;;;;;7.00;6.50;;;7.80;57.40;;;;;;20430;6870;314321;-92
2022/01/02 08:20:49;;;;;;;6.30;5.80;;;8.00;56.70;;;;;;20652;6870;117802;-90
2022/01/02 08:23:15;;;;;;;6.53;6.12;;;8.00;56.80;;;;;;20429;6870;308424;-90
2022/01/02 08:25:40;;;;;;;6.80;6.30;;;8.20;56.60;;;;;;20413;6870;340886;-90
2022/01/02 08:28:06;;;;;;;6.00;5.50;;;8.40;55.70;;;;;;20647;6869;118095;-87
2022/01/02 08:30:34;;;;;;;7.00;6.50;;;8.50;56.40;;;;;;20444;6870;317861;-91
2022/01/02 08:32:59;;;;;;;6.10;5.60;;;8.50;55.70;;;;;;20654;6870;117207;-90
2022/01/02 08:35:25;;;;;;;7.00;6.40;;;8.50;56.10;;;;;;20637;6870;119866;-91
2022/01/02 08:37:52;;;;;;;6.87;6.32;;;8.40;56.90;;;;;;20450;6870;291819;-89
2022/01/02 08:40:17;;;;;;;7.72;7.12;;;8.50;56.10;;;;;;20434;6870;336901;-90
2022/01/02 08:42:47;;;;;;;6.97;6.37;;;8.80;55.10;;;;;;20644;6870;123031;-87
2022/01/02 08:45:13;;;;;;;7.70;7.10;;;8.80;55.10;;;;;;20418;6870;305730;-88
2022/01/02 08:47:38;;;;;;;6.47;5.97;;;8.80;54.40;;;;;;20647;6870;122474;-89
2022/01/02 08:50:04;;;;;;;6.40;5.90;;;8.70;54.90;;;;;;20719;6870;68048;-86
2022/01/02 08:52:30;;;;;;;7.00;6.50;;;8.50;55.70;;;;;;20493;6870;308133;-86
2022/01/02 08:54:55;;;;;;;6.43;5.97;;;8.60;55.80;;;;;;20713;6870;123019;-87
2022/01/02 08:57:21;;;;;;;6.03;5.62;;;8.70;56.30;;;;;;20648;6870;119881;-88
2022/01/02 08:59:46;;;;;;;5.87;5.37;;;8.60;56.90;;;;;;20452;6870;118027;-85
2022/01/02 09:02:12;;;;;;;7.20;6.70;;;8.50;57.50;;;;;;20345;6870;286846;-87
2022/01/02 09:04:37;;;;;;;5.77;5.37;;;8.70;56.80;;;;;;20622;6870;116371;-85
2022/01/02 09:07:04;;;;;;;6.53;6.03;;;8.90;56.80;;;;;;20423;6870;284882;-85
2022/01/02 09:09:30;;;;;;;6.70;6.30;;;9.10;55.50;;;;;;20379;6870;309677;-84
2022/01/02 09:11:55;;;;;;;6.28;5.78;;;9.40;54.20;;;;;;20638;6870;117323;-85
2022/01/02 09:14:21;;;;;;;7.20;6.63;;;9.40;54.50;;;;;;20401;6870;319905;-86
2022/01/02 09:16:48;;;;;;;6.97;6.53;;;9.60;53.30;;;;;;20405;6870;309226;-87
2022/01/02 09:19:14;;;;;;;5.90;5.50;;;9.60;53.30;;;;;;20632;6870;117226;-85
2022/01/02 09:21:39;;;;;;;6.47;5.97;;;9.50;53.90;;;;;;20602;6870;117429;-85
2022/01/02 09:24:05;;;;;;;5.53;5.12;;;9.30;54.90;;;;;;20647;6870;117560;-87
2022/01/02 09:26:32;;;;;;;6.87;6.37;;;9.10;55.90;;;;;;20449;6870;328743;-86
2022/01/02 09:28:57;;;;;;;6.93;6.53;;;9.30;55.70;;;;;;20449;6870;279730;-85
2022/01/02 09:31:23;;;;;;;6.90;6.40;;;9.70;54.90;;;;;;20429;6870;308818;-86
2022/01/02 09:33:48;;;;;;;6.30;5.90;;;10.00;53.10;;;;;;20652;6870;118018;-90
2022/01/02 09:36:16;;;;;;;6.60;6.20;;;10.00;52.80;;;;;;20420;6870;309199;-91
2022/01/02 09:38:42;;;;;;;6.67;6.17;;;10.00;52.80;;;;;;20642;6869;117942;-87
2022/01/02 09:41:07;;;;;;;6.30;5.90;;;9.90;54.20;;;;;;20644;6870;120708;-90
2022/01/02 09:43:33;;;;;;;5.97;5.57;;;9.70;54.80;;;;;;20627;6870;122155;-87
2022/01/02 09:45:59;;;;;;;6.97;6.47;;;9.50;55.40;;;;;;20434;6870;310871;-88
2022/01/02 09:48:24;;;;;;;6.43;6.03;;;9.60;54.40;;;;;;20642;6870;117534;-87
2022/01/02 09:50:51;;;;;;;6.57;6.07;;;9.50;55.10;;;;;;20642;6870;117901;-88
2022/01/02 09:53:17;;;;;;;6.00;5.60;;;9.50;55.10;;;;;;20641;6870;117571;-87
2022/01/02 09:55:44;;;;;;;6.33;5.93;;;9.30;55.50;;;;;;20607;6870;121661;-84
2022/01/02 09:58:11;;;;;;;6.47;5.87;;;9.20;55.90;;;;;;20632;6870;117416;-87
2022/01/02 10:00:36;;;;;;;6.28;5.87;;;9.00;56.20;;;;;;20629;6870;117258;-88
2022/01/02 10:03:01;;;;;;;6.37;5.90;;;9.00;56.60;;;;;;20641;6870;118494;-88
2022/01/02 10:05:27;;;;;;;6.10;5.60;;;8.80;56.80;;;;;;20610;6870;120493;-86
2022/01/02 10:07:52;;;;;;;6.87;6.47;;;8.80;57.20;;;;;;20388;6870;280522;-87
2022/01/02 10:10:18;;;;;;;6.47;5.97;;;9.00;56.30;;;;;;20653;6870;117418;-86
2022/01/02 10:12:44;;;;;;;6.60;6.10;;;9.20;56.50;;;;;;20624;6870;117189;-87
2022/01/02 10:50:23;;;;;;;5.63;5.30;;;11.60;48.60;;;;;;21320;6516;82478;-86
2022/01/02 10:52:50;;;;;;;7.00;6.57;;;11.30;49.40;;;;;;20601;6793;278966;-88
2022/01/02 10:55:26;;;;;;;5.93;5.53;;;11.10;49.40;;;;;;20698;6851;117051;-86
2022/01/02 10:57:54;;;;;;;5.67;5.27;;;10.90;50.80;;;;;;20678;6851;117458;-86
2022/01/02 11:00:20;;;;;;;6.47;6.07;;;10.60;51.10;;;;;;20473;6851;310166;-86
2022/01/02 11:02:45;;;;;;;5.90;5.50;;;10.60;51.10;;;;;;20640;6860;117555;-88
2022/01/02 11:05:11;;;;;;;4.93;4.63;;;10.60;51.70;;;;;;20414;6874;284801;-87
2022/01/02 11:07:43;;;;;;;5.30;5.00;;;10.70;50.90;;;;;;20666;6849;117777;-88
2022/01/02 11:10:12;;;;;;;6.40;6.00;;;10.80;51.50;;;;;;20346;6859;278615;-88
2022/01/02 11:12:40;;;;;;;6.17;5.67;;;11.00;52.40;;;;;;20619;6859;117346;-85
2022/01/02 11:15:06;;;;;;;6.70;6.20;;;11.00;52.20;;;;;;20392;6874;281719;-86
2022/01/02 11:17:31;;;;;;;6.10;5.60;;;11.10;51.60;;;;;;20647;6874;124818;-84
2022/01/02 11:19:57;;;;;;;6.68;6.22;;;11.10;51.90;;;;;;20509;6864;335856;-86
2022/01/02 11:22:25;;;;;;;6.05;5.65;;;11.10;52.40;;;;;;20775;6849;116788;-84
2022/01/02 11:24:50;;;;;;;5.57;5.07;;;11.10;52.40;;;;;;20584;6874;116319;-84
2022/01/02 11:27:27;;;;;;;5.53;5.00;;;10.90;52.90;;;;;;20663;6849;117326;-86
2022/01/02 11:29:53;;;;;;;5.50;5.10;;;10.70;53.40;;;;;;20397;6859;280908;-90
2022/01/02 11:32:19;;;;;;;5.07;4.67;;;10.80;52.10;;;;;;20759;6834;119636;-87
2022/01/02 11:34:46;;;;;;;4.45;4.20;;;10.90;52.30;;;;;;20746;6834;117981;-89
2022/01/02 11:37:11;;;;;;;4.80;4.40;;;10.70;52.70;;;;;;20747;6834;117836;-87
2022/01/02 11:40:00;;;;;;;4.80;4.50;;;10.60;53.30;;;;;;20639;6859;117906;-82
2022/01/02 11:42:42;;;;;;;5.17;4.77;;;10.60;53.70;;;;;;20488;6849;308775;-86
2022/01/02 11:45:07;;;;;;;4.73;4.43;;;10.90;53.30;;;;;;20453;6862;279295;-87
2022/01/02 11:47:44;;;;;;;4.28;3.97;;;11.30;51.60;;;;;;19543;6868;285952;-88
2022/01/02 11:50:32;;;;;;;4.03;3.60;;;11.60;50.20;;;;;;20633;6868;124403;-87
2022/01/02 11:53:09;;;;;;;3.57;3.37;;;11.60;50.60;;;;;;20618;6874;122448;-86
2022/01/02 11:55:34;;;;;;;3.90;3.70;;;11.40;51.40;;;;;;20668;6849;117439;-87
2022/01/02 11:58:00;;;;;;;4.07;3.87;;;11.20;51.80;;;;;;20424;6872;313379;-84
2022/01/02 12:00:32;;;;;;;4.40;4.00;;;11.40;51.00;;;;;;20619;6873;117704;-87
2022/01/02 12:02:58;;;;;;;4.78;4.47;;;11.40;51.30;;;;;;20418;6849;340495;-90
2022/01/02 12:05:23;;;;;;;4.12;3.90;;;11.60;51.00;;;;;;20590;6874;117749;-88
2022/01/02 12:07:53;;;;;;;3.73;3.53;;;11.60;51.20;;;;;;20652;6849;123418;-87
2022/01/02 12:10:20;;;;;;;4.00;3.72;;;11.40;51.70;;;;;;20405;6859;280669;-91
2022/01/02 12:13:28;;;;;;;4.07;3.87;;;11.50;49.50;;;;;;20329;6889;286882;-88
2022/01/02 12:15:36;;;;;;;3.37;3.17;;;11.90;48.40;;;;;;20266;6879;309596;-89
2022/01/02 12:18:13;;;;;;;3.30;3.10;;;12.30;48.40;;;;;;20637;6862;119756;-88
2022/01/02 12:21:02;;;;;;;4.80;3.43;;;12.30;48.40;;;;;;20656;6862;119885;-89
2022/01/02 12:23:52;;;;;;;;;;;;;;;;;;;;;
2022/01/02 12:26:03;;;;;;;4.20;3.90;;;12.00;50.10;;;;;;20506;6862;118020;-85
2022/01/02 12:28:29;;;;;;;4.70;4.40;;;11.90;50.60;;;;;;20458;6862;316832;-86
2022/01/02 12:30:56;;;;;;;4.57;4.28;;;12.10;49.50;;;;;;20583;6862;117477;-90
2022/01/02 12:33:24;;;;;;;4.77;4.43;;;12.20;50.00;;;;;;20652;6862;118921;-87
2022/01/02 12:35:50;;;;;;;5.20;4.83;;;12.10;50.60;;;;;;20456;6864;124160;-87
2022/01/02 12:38:18;;;;;;;5.35;4.95;;;11.90;51.40;;;;;;20655;6864;117478;-86
2022/01/02 12:40:43;;;;;;;5.03;4.73;;;11.90;51.40;;;;;;20592;6888;118174;-88
2022/01/02 12:43:09;;;;;;;4.50;4.20;;;11.80;51.60;;;;;;20550;6888;120698;-87
2022/01/02 12:45:34;;;;;;;4.57;4.28;;;11.80;52.00;;;;;;20623;6873;117789;-88
2022/01/02 12:48:00;;;;;;;4.33;4.03;;;11.80;52.20;;;;;;20608;6880;117590;-88
2022/01/02 12:50:29;;;;;;;4.80;4.50;;;11.70;52.20;;;;;;20391;6881;283352;-87
2022/01/02 12:52:55;;;;;;;4.30;4.10;;;12.00;50.40;;;;;;20390;6868;308275;-87
2022/01/02 12:55:20;;;;;;;4.00;3.80;;;12.40;49.10;;;;;;20649;6860;117885;-86
2022/01/02 12:57:46;;;;;;;3.77;3.57;;;12.50;49.40;;;;;;20640;6857;124444;-87
2022/01/02 13:00:12;;;;;;;4.10;3.80;;;12.30;50.50;;;;;;20572;6874;117651;-91
2022/01/02 13:02:39;;;;;;;4.10;3.90;;;12.30;50.40;;;;;;20437;6865;309064;-87
2022/01/02 13:05:06;;;;;;;3.95;3.75;;;12.40;48.70;;;;;;20396;6877;310030;-86
2022/01/02 13:07:32;;;;;;;4.18;3.87;;;12.80;47.90;;;;;;20346;6888;339329;-87
2022/01/02 13:10:01;;;;;;;3.05;2.85;;;13.10;46.70;;;;;;20576;6888;117595;-87
2022/01/02 13:12:23;;;;;;;3.35;3.05;;;13.10;47.40;;;;;;20357;6883;280436;-86
2022/01/02 13:14:52;;;;;;;3.25;2.95;;;13.20;45.70;;;;;;20427;6873;279357;-87
2022/01/02 13:17:21;;;;;;;2.67;2.57;;;13.50;45.20;;;;;;20629;6873;124677;-87
2022/01/02 13:19:50;;;;;;;2.83;2.70;;;13.40;45.90;;;;;;20597;6873;123284;-87